createdAt,value
2018-12-18T00:00:36.730Z,30.53
2018-12-18T00:03:04.431Z,39.80
2018-12-18T00:05:34.966Z,32.20
2018-12-18T00:08:03.070Z,39.00
2018-12-18T00:10:36.470Z,41.60
2018-12-18T00:13:04.071Z,36.50
2018-12-18T00:15:31.683Z,37.60
2018-12-18T00:17:59.292Z,31.83
2018-12-18T00:20:26.952Z,23.60
2018-12-18T00:22:54.704Z,30.53
2018-12-18T00:25:22.308Z,25.70
2018-12-18T00:27:49.916Z,31.93
2018-12-18T00:30:17.458Z,25.53
2018-12-18T00:32:45.022Z,32.93
2018-12-18T00:35:12.597Z,32.80
2018-12-18T00:37:40.119Z,34.37
2018-12-18T00:40:07.825Z,34.10
2018-12-18T00:42:35.397Z,27.90
2018-12-18T00:45:03.124Z,29.80
2018-12-18T00:47:30.666Z,33.97
2018-12-18T00:49:58.228Z,33.63
2018-12-18T00:52:26.347Z,39.53
2018-12-18T00:54:54.007Z,28.03
2018-12-18T00:57:21.668Z,41.20
2018-12-18T00:59:50.298Z,33.53
2018-12-18T01:02:17.968Z,38.00
2018-12-18T01:04:46.220Z,35.13
2018-12-18T01:07:13.879Z,25.50
2018-12-18T01:09:41.613Z,33.63
2018-12-18T01:12:09.311Z,24.63
2018-12-18T01:14:36.842Z,27.43
2018-12-18T01:17:04.488Z,35.83
2018-12-18T01:19:32.210Z,29.40
2018-12-18T01:21:59.754Z,38.37
2018-12-18T01:24:27.298Z,34.13
2018-12-18T01:26:54.862Z,33.27
2018-12-18T01:29:22.392Z,31.07
2018-12-18T01:31:50.068Z,28.03
2018-12-18T01:34:17.615Z,34.53
2018-12-18T01:36:45.207Z,38.73
2018-12-18T01:39:12.832Z,44.20
2018-12-18T01:41:40.415Z,55.37
2018-12-18T01:44:07.991Z,38.57
2018-12-18T01:46:35.701Z,29.67
2018-12-18T01:49:03.258Z,26.30
2018-12-18T01:51:30.983Z,28.43
2018-12-18T01:53:58.563Z,35.47
2018-12-18T01:56:26.141Z,32.10
2018-12-18T01:58:53.879Z,43.13
2018-12-18T02:01:21.887Z,39.08
2018-12-18T02:03:49.439Z,29.77
2018-12-18T02:06:16.963Z,23.33
2018-12-18T02:08:44.512Z,27.60
2018-12-18T02:11:12.122Z,23.83
2018-12-18T02:13:39.889Z,27.33
2018-12-18T02:16:09.415Z,41.00
2018-12-18T02:18:37.362Z,39.23
2018-12-18T02:21:04.949Z,27.33
2018-12-18T02:23:32.512Z,27.93
2018-12-18T02:26:00.049Z,35.07
2018-12-18T02:28:27.580Z,42.37
2018-12-18T02:30:55.132Z,35.83
2018-12-18T02:33:22.655Z,26.87
2018-12-18T02:35:50.184Z,25.53
2018-12-18T02:38:17.775Z,26.20
2018-12-18T02:40:45.300Z,27.17
2018-12-18T02:43:12.823Z,24.33
2018-12-18T02:45:40.381Z,25.20
2018-12-18T02:48:07.938Z,14.60
2018-12-18T02:50:35.493Z,22.90
2018-12-18T02:53:03.029Z,23.57
2018-12-18T02:55:30.582Z,24.30
2018-12-18T02:57:58.105Z,24.97
2018-12-18T03:00:25.657Z,25.37
2018-12-18T03:02:53.175Z,22.47
2018-12-18T03:05:20.722Z,29.07
2018-12-18T03:07:48.261Z,24.73
2018-12-18T03:10:15.789Z,20.30
2018-12-18T03:12:43.344Z,37.33
2018-12-18T03:15:10.874Z,24.83
2018-12-18T03:17:38.386Z,23.43
2018-12-18T03:20:07.197Z,20.57
2018-12-18T03:22:34.710Z,25.10
2018-12-18T03:25:02.269Z,23.93
2018-12-18T03:27:29.809Z,21.70
2018-12-18T03:29:57.335Z,26.93
2018-12-18T03:32:26.385Z,23.53
2018-12-18T03:34:54.025Z,18.63
2018-12-18T03:37:21.544Z,28.37
2018-12-18T03:39:49.105Z,22.07
2018-12-18T03:42:16.646Z,22.73
2018-12-18T03:44:44.213Z,23.87
2018-12-18T03:47:11.757Z,19.30
2018-12-18T03:49:39.293Z,21.93
2018-12-18T03:52:06.811Z,23.83
2018-12-18T03:54:34.325Z,21.57
2018-12-18T03:57:01.849Z,22.83
2018-12-18T03:59:29.362Z,19.43
2018-12-18T04:01:56.898Z,20.93
2018-12-18T04:04:24.436Z,18.60
2018-12-18T04:06:51.968Z,19.83
2018-12-18T04:09:19.503Z,21.57
2018-12-18T04:11:52.796Z,19.17
2018-12-18T04:14:20.348Z,18.63
2018-12-18T04:16:47.890Z,19.13
2018-12-18T04:19:15.417Z,24.27
2018-12-18T04:21:42.937Z,18.97
2018-12-18T04:24:10.496Z,19.67
2018-12-18T04:26:38.018Z,20.37
2018-12-18T04:29:05.530Z,19.40
2018-12-18T04:31:33.085Z,17.70
2018-12-18T04:34:00.603Z,18.90
2018-12-18T04:36:28.145Z,18.23
2018-12-18T04:38:55.673Z,18.83
2018-12-18T04:41:23.229Z,19.33
2018-12-18T04:43:50.785Z,19.15
2018-12-18T04:46:18.325Z,20.33
2018-12-18T04:48:45.881Z,18.07
2018-12-18T04:51:13.418Z,16.17
2018-12-18T04:53:40.969Z,18.07
2018-12-18T04:56:08.530Z,21.90
2018-12-18T04:58:36.063Z,15.93
2018-12-18T05:01:03.585Z,18.87
2018-12-18T05:03:31.140Z,15.37
2018-12-18T05:05:58.754Z,16.37
2018-12-18T05:08:26.310Z,16.73
2018-12-18T05:10:53.870Z,18.43
2018-12-18T05:13:21.432Z,14.63
2018-12-18T05:15:48.967Z,15.97
2018-12-18T05:18:16.523Z,16.53
2018-12-18T05:20:44.056Z,10.87
2018-12-18T05:23:11.608Z,16.67
2018-12-18T05:25:39.133Z,16.40
2018-12-18T05:28:06.686Z,16.27
2018-12-18T05:30:34.210Z,13.80
2018-12-18T05:33:01.769Z,17.90
2018-12-18T05:35:29.310Z,14.20
2018-12-18T05:37:56.835Z,17.17
2018-12-18T05:40:24.370Z,14.57
2018-12-18T05:42:51.881Z,17.17
2018-12-18T05:45:19.414Z,19.67
2018-12-18T05:47:46.928Z,20.00
2018-12-18T05:50:14.463Z,17.77
2018-12-18T05:52:42.018Z,14.67
2018-12-18T05:55:09.560Z,16.57
2018-12-18T05:57:37.143Z,19.33
2018-12-18T06:00:05.335Z,14.57
2018-12-18T06:02:32.858Z,17.50
2018-12-18T06:05:03.386Z,17.67
2018-12-18T06:07:29.950Z,16.17
2018-12-18T06:09:57.479Z,16.07
2018-12-18T06:12:25.114Z,18.20
2018-12-18T06:14:52.669Z,21.20
2018-12-18T06:17:20.191Z,17.83
2018-12-18T06:19:47.745Z,19.70
2018-12-18T06:22:15.266Z,16.67
2018-12-18T06:24:42.834Z,18.30
2018-12-18T06:27:10.372Z,14.43
2018-12-18T06:29:37.894Z,17.43
2018-12-18T06:32:05.445Z,12.70
2018-12-18T06:34:33.005Z,15.33
2018-12-18T06:37:00.521Z,13.27
2018-12-18T06:39:28.046Z,14.40
2018-12-18T06:41:55.597Z,13.77
2018-12-18T06:44:23.131Z,17.10
2018-12-18T06:46:50.668Z,15.50
2018-12-18T06:49:18.194Z,17.83
2018-12-18T06:51:45.701Z,13.20
2018-12-18T06:54:13.229Z,15.37
2018-12-18T06:56:40.774Z,15.27
2018-12-18T06:59:08.336Z,16.80
2018-12-18T07:01:35.868Z,21.40
2018-12-18T07:04:03.547Z,16.07
2018-12-18T07:06:31.083Z,21.37
2018-12-18T07:08:58.593Z,13.83
2018-12-18T07:11:26.121Z,18.23
2018-12-18T07:13:53.639Z,15.77
2018-12-18T07:16:21.164Z,18.93
2018-12-18T07:18:48.717Z,16.73
2018-12-18T07:21:16.239Z,23.10
2018-12-18T07:23:43.765Z,15.47
2018-12-18T07:26:11.277Z,19.40
2018-12-18T07:28:39.846Z,21.27
2018-12-18T07:31:07.449Z,18.37
2018-12-18T07:33:35.000Z,19.40
2018-12-18T07:36:02.537Z,20.55
2018-12-18T07:38:30.070Z,21.67
2018-12-18T07:40:57.581Z,15.93
2018-12-18T07:43:25.105Z,19.80
2018-12-18T07:45:52.641Z,20.00
2018-12-18T07:48:20.189Z,21.97
2018-12-18T07:50:47.702Z,21.93
2018-12-18T07:53:15.234Z,25.07
2018-12-18T07:55:42.747Z,17.13
2018-12-18T07:58:10.279Z,25.17
2018-12-18T08:00:37.789Z,23.00
2018-12-18T08:03:05.331Z,24.57
2018-12-18T08:05:32.870Z,21.70
2018-12-18T08:08:00.377Z,20.93
2018-12-18T08:10:27.931Z,18.73
2018-12-18T08:12:55.474Z,21.43
2018-12-18T08:15:23.173Z,23.27
2018-12-18T08:17:50.721Z,18.57
2018-12-18T08:20:18.269Z,23.63
2018-12-18T08:22:46.481Z,22.00
2018-12-18T08:25:14.034Z,20.50
2018-12-18T08:27:41.570Z,24.07
2018-12-18T08:30:09.114Z,17.47
2018-12-18T08:32:36.644Z,21.93
2018-12-18T08:35:05.040Z,17.13
2018-12-18T08:37:32.593Z,21.82
2018-12-18T08:40:00.120Z,23.83
2018-12-18T08:42:27.660Z,20.57
2018-12-18T08:44:55.294Z,18.17
2018-12-18T08:47:22.834Z,20.10
2018-12-18T08:49:50.369Z,18.10
2018-12-18T08:52:17.880Z,20.93
2018-12-18T08:54:45.417Z,21.57
2018-12-18T08:57:12.951Z,19.17
2018-12-18T08:59:40.482Z,20.80
2018-12-18T09:02:08.016Z,17.77
2018-12-18T09:04:35.569Z,20.73
2018-12-18T09:07:03.105Z,17.83
2018-12-18T09:09:30.641Z,15.70
2018-12-18T09:11:58.163Z,18.07
2018-12-18T09:14:25.685Z,16.30
2018-12-18T09:16:59.010Z,20.90
2018-12-18T09:19:26.549Z,20.00
2018-12-18T09:21:54.079Z,17.80
2018-12-18T09:24:21.632Z,17.50
2018-12-18T09:26:49.173Z,18.43
2018-12-18T09:29:16.705Z,16.27
2018-12-18T09:31:44.241Z,16.10
2018-12-18T09:34:11.801Z,15.13
2018-12-18T09:36:39.313Z,16.97
2018-12-18T09:39:12.607Z,13.20
2018-12-18T09:41:40.497Z,15.07
2018-12-18T09:44:10.036Z,15.27
2018-12-18T09:46:37.560Z,16.10
2018-12-18T09:49:05.107Z,17.50
2018-12-18T09:51:32.657Z,12.40
2018-12-18T09:54:00.165Z,15.83
2018-12-18T09:56:27.717Z,13.63
2018-12-18T09:58:55.242Z,14.43
2018-12-18T10:01:22.771Z,16.60
2018-12-18T10:03:50.320Z,13.10
2018-12-18T10:06:17.873Z,17.03
2018-12-18T10:08:45.421Z,11.97
2018-12-18T10:11:12.936Z,11.87
2018-12-18T10:13:40.459Z,12.90
2018-12-18T10:16:07.969Z,15.57
2018-12-18T10:18:35.521Z,12.77
2018-12-18T10:21:03.034Z,15.67
2018-12-18T10:23:30.579Z,15.97
2018-12-18T10:25:58.175Z,14.07
2018-12-18T10:28:25.717Z,14.33
2018-12-18T10:30:53.247Z,11.93
2018-12-18T10:33:20.769Z,13.17
2018-12-18T10:35:48.329Z,13.00
2018-12-18T10:38:15.874Z,12.40
2018-12-18T10:40:43.406Z,13.00
2018-12-18T10:43:10.923Z,15.23
2018-12-18T10:45:38.469Z,14.43
2018-12-18T10:48:05.982Z,15.80
2018-12-18T10:50:33.505Z,18.23
2018-12-18T10:53:01.048Z,13.07
2018-12-18T10:55:28.601Z,13.77
2018-12-18T10:57:56.169Z,15.50
2018-12-18T11:00:29.383Z,11.67
2018-12-18T11:02:56.937Z,13.67
2018-12-18T11:05:24.494Z,13.70
2018-12-18T11:07:52.001Z,12.73
2018-12-18T11:10:19.525Z,10.93
2018-12-18T11:12:49.018Z,12.73
2018-12-18T11:15:16.550Z,14.27
2018-12-18T11:17:44.057Z,12.47
2018-12-18T11:20:11.595Z,16.30
2018-12-18T11:22:39.101Z,13.13
2018-12-18T11:25:06.706Z,10.77
2018-12-18T11:27:34.222Z,14.13
2018-12-18T11:30:01.765Z,11.63
2018-12-18T11:32:33.151Z,15.00
2018-12-18T11:34:58.918Z,13.80
2018-12-18T11:37:26.448Z,11.13
2018-12-18T11:39:53.992Z,10.17
2018-12-18T11:42:21.520Z,14.53
2018-12-18T11:44:49.098Z,12.90
2018-12-18T11:47:16.770Z,12.83
2018-12-18T11:49:44.316Z,13.27
2018-12-18T11:52:11.848Z,12.07
2018-12-18T11:54:39.375Z,11.27
2018-12-18T11:57:06.889Z,12.97
2018-12-18T11:59:34.446Z,14.03
2018-12-18T12:02:01.976Z,12.40
2018-12-18T12:04:29.501Z,14.77
2018-12-18T12:06:57.005Z,10.70
2018-12-18T12:09:24.525Z,8.37
2018-12-18T12:11:52.058Z,13.13
2018-12-18T12:14:19.566Z,13.97
2018-12-18T12:16:47.089Z,10.00
2018-12-18T12:19:14.597Z,12.33
2018-12-18T12:21:42.127Z,10.47
2018-12-18T12:24:09.638Z,12.60
2018-12-18T12:26:37.178Z,9.00
2018-12-18T12:29:04.690Z,8.90
2018-12-18T12:31:32.214Z,10.33
2018-12-18T12:33:59.726Z,13.10
2018-12-18T12:36:29.864Z,10.70
2018-12-18T12:38:56.789Z,12.00
2018-12-18T12:41:24.310Z,12.13
2018-12-18T12:43:51.825Z,5.93
2018-12-18T12:46:19.357Z,11.37
2018-12-18T12:48:52.570Z,11.60
2018-12-18T12:51:20.098Z,12.70
2018-12-18T12:53:47.607Z,10.87
2018-12-18T12:56:15.130Z,13.08
2018-12-18T12:58:42.638Z,15.40
2018-12-18T13:01:10.247Z,11.10
2018-12-18T13:03:37.764Z,9.80
2018-12-18T13:06:05.365Z,9.17
2018-12-18T13:08:32.870Z,9.00
2018-12-18T13:11:00.406Z,11.63
2018-12-18T13:13:27.929Z,14.23
2018-12-18T13:15:55.437Z,11.30
2018-12-18T13:18:23.851Z,9.77
2018-12-18T13:20:51.369Z,8.13
2018-12-18T13:23:18.878Z,8.50
2018-12-18T13:25:46.401Z,14.35
2018-12-18T13:28:13.915Z,15.07
2018-12-18T13:30:41.440Z,12.23
2018-12-18T13:33:08.950Z,13.77
2018-12-18T13:35:36.475Z,13.47
2018-12-18T13:38:04.075Z,11.33
2018-12-18T13:40:32.320Z,9.10
2018-12-18T13:43:00.051Z,6.90
2018-12-18T13:45:27.569Z,12.13
2018-12-18T13:47:55.073Z,10.20
2018-12-18T13:50:22.678Z,8.30
2018-12-18T13:52:50.183Z,7.73
2018-12-18T13:55:17.703Z,7.07
2018-12-18T13:57:45.233Z,10.93
2018-12-18T14:00:12.746Z,7.77
2018-12-18T14:02:40.269Z,7.77
2018-12-18T14:05:07.783Z,6.90
2018-12-18T14:07:35.301Z,7.00
2018-12-18T14:10:03.494Z,10.32
2018-12-18T14:12:31.023Z,8.50
2018-12-18T14:14:58.538Z,7.30
2018-12-18T14:17:26.066Z,9.40
2018-12-18T14:19:53.570Z,10.10
2018-12-18T14:22:21.079Z,8.13
2018-12-18T14:24:49.534Z,7.90
2018-12-18T14:27:17.049Z,7.03
2018-12-18T14:29:44.553Z,7.47
2018-12-18T14:32:12.057Z,7.93
2018-12-18T14:34:39.594Z,8.93
2018-12-18T14:37:07.107Z,10.23
2018-12-18T14:39:34.621Z,8.70
2018-12-18T14:42:02.154Z,6.63
2018-12-18T14:44:29.661Z,15.97
2018-12-18T14:46:57.298Z,12.03
2018-12-18T14:49:24.821Z,12.20
2018-12-18T14:51:52.335Z,10.78
2018-12-18T14:54:20.244Z,10.87
2018-12-18T14:56:47.778Z,7.23
2018-12-18T14:59:15.620Z,7.53
2018-12-18T15:01:43.219Z,8.37
2018-12-18T15:04:10.737Z,7.27
2018-12-18T15:06:38.522Z,8.50
2018-12-18T15:09:06.478Z,8.07
2018-12-18T15:11:33.981Z,10.57
2018-12-18T15:14:01.510Z,7.90
2018-12-18T15:16:29.023Z,9.77
2018-12-18T15:18:56.534Z,6.43
2018-12-18T15:21:24.065Z,8.83
2018-12-18T15:23:51.574Z,7.13
2018-12-18T15:26:19.081Z,7.55
2018-12-18T15:28:46.607Z,8.87
2018-12-18T15:31:14.119Z,9.60
2018-12-18T15:33:41.701Z,10.40
2018-12-18T15:36:09.205Z,7.70
2018-12-18T15:38:36.730Z,8.03
2018-12-18T15:41:04.347Z,9.03
2018-12-18T15:43:31.875Z,7.83
2018-12-18T15:45:59.386Z,8.47
2018-12-18T15:48:26.917Z,10.43
2018-12-18T15:50:54.430Z,6.67
2018-12-18T15:53:21.953Z,9.45
2018-12-18T15:55:49.466Z,10.67
2018-12-18T15:58:16.985Z,11.63
2018-12-18T16:00:44.582Z,9.83
2018-12-18T16:03:12.110Z,9.43
2018-12-18T16:05:39.613Z,9.57
2018-12-18T16:08:07.130Z,8.87
2018-12-18T16:10:34.633Z,7.93
2018-12-18T16:13:02.159Z,7.70
2018-12-18T16:15:29.670Z,7.37
2018-12-18T16:17:57.194Z,9.10
2018-12-18T16:20:24.714Z,9.17
2018-12-18T16:22:52.237Z,12.83
2018-12-18T16:25:19.757Z,12.00
2018-12-18T16:27:47.277Z,10.03
2018-12-18T16:30:14.785Z,8.47
2018-12-18T16:32:42.315Z,10.30
2018-12-18T16:35:09.822Z,10.97
2018-12-18T16:37:37.363Z,10.10
2018-12-18T16:40:04.955Z,9.90
2018-12-18T16:42:32.477Z,13.40
2018-12-18T16:45:00.167Z,17.37
2018-12-18T16:47:27.695Z,13.17
2018-12-18T16:49:55.211Z,13.00
2018-12-18T16:52:22.730Z,12.37
2018-12-18T16:54:50.259Z,10.37
2018-12-18T16:57:17.770Z,12.00
2018-12-18T16:59:45.291Z,9.37
2018-12-18T17:02:12.966Z,9.50
2018-12-18T17:04:40.485Z,8.97
2018-12-18T17:07:07.999Z,11.90
2018-12-18T17:09:35.526Z,10.23
2018-12-18T17:12:03.118Z,12.57
2018-12-18T17:14:30.642Z,12.83
2018-12-18T17:16:58.158Z,10.00
2018-12-18T17:19:25.676Z,12.67
2018-12-18T17:21:53.191Z,13.83
2018-12-18T17:24:20.724Z,11.43
2018-12-18T17:26:48.229Z,15.10
2018-12-18T17:29:15.740Z,15.97
2018-12-18T17:31:43.279Z,20.07
2018-12-18T17:34:10.792Z,14.57
2018-12-18T17:36:38.493Z,13.97
2018-12-18T17:39:07.083Z,12.60
2018-12-18T17:41:34.594Z,12.17
2018-12-18T17:44:02.404Z,13.00
2018-12-18T17:46:29.923Z,17.50
2018-12-18T17:48:57.451Z,13.97
2018-12-18T17:51:24.961Z,13.60
2018-12-18T17:53:52.534Z,15.90
2018-12-18T17:56:20.074Z,15.90
2018-12-18T17:58:47.597Z,13.57
2018-12-18T18:01:15.128Z,15.10
2018-12-18T18:03:42.634Z,13.40
2018-12-18T18:06:10.164Z,15.03
2018-12-18T18:08:37.690Z,17.33
2018-12-18T18:11:05.211Z,16.67
2018-12-18T18:13:32.745Z,17.02
2018-12-18T18:16:00.258Z,12.47
2018-12-18T18:18:27.808Z,19.03
2018-12-18T18:20:55.326Z,21.90
2018-12-18T18:23:22.937Z,20.97
2018-12-18T18:25:50.643Z,24.90
2018-12-18T18:28:18.187Z,21.40
2018-12-18T18:30:45.717Z,24.27
2018-12-18T18:33:13.278Z,24.13
2018-12-18T18:35:40.813Z,19.07
2018-12-18T18:38:08.343Z,23.23
2018-12-18T18:40:35.863Z,19.60
2018-12-18T18:43:03.390Z,19.57
2018-12-18T18:45:30.907Z,17.60
2018-12-18T18:47:58.448Z,21.80
2018-12-18T18:50:25.966Z,22.43
2018-12-18T18:52:53.498Z,21.87
2018-12-18T18:55:21.015Z,15.53
2018-12-18T18:57:48.547Z,17.37
2018-12-18T19:00:16.359Z,22.03
2018-12-18T19:02:43.883Z,20.97
2018-12-18T19:05:11.418Z,18.60
2018-12-18T19:07:38.943Z,23.10
2018-12-18T19:12:51.650Z,24.67
2018-12-18T19:15:19.183Z,21.23
2018-12-18T19:17:46.698Z,28.93
2018-12-18T19:20:14.236Z,27.33
2018-12-18T19:22:41.775Z,31.73
2018-12-18T19:25:09.281Z,32.10
2018-12-18T19:27:36.827Z,35.53
2018-12-18T19:30:05.502Z,32.60
2018-12-18T19:32:33.025Z,31.70
2018-12-18T19:35:00.553Z,25.03
2018-12-18T19:37:28.086Z,21.87
2018-12-18T19:39:55.897Z,24.70
2018-12-18T19:42:23.699Z,25.33
2018-12-18T19:44:51.735Z,25.57
2018-12-18T19:47:19.267Z,26.57
2018-12-18T19:49:46.787Z,23.57
2018-12-18T19:52:14.329Z,24.07
2018-12-18T19:54:41.848Z,28.67
2018-12-18T19:57:09.366Z,24.77
2018-12-18T19:59:36.889Z,27.32
2018-12-18T20:02:04.574Z,27.27
2018-12-18T20:04:32.170Z,25.03
2018-12-18T20:06:59.704Z,29.43
2018-12-18T20:09:27.242Z,25.30
2018-12-18T20:11:54.802Z,27.03
2018-12-18T20:14:22.313Z,27.43
2018-12-18T20:16:49.856Z,27.37
2018-12-18T20:19:17.398Z,30.17
2018-12-18T20:21:44.911Z,29.30
2018-12-18T20:24:12.433Z,31.23
2018-12-18T20:26:39.954Z,26.13
2018-12-18T20:29:07.462Z,30.10
2018-12-18T20:31:35.018Z,32.97
2018-12-18T20:34:02.557Z,30.90
2018-12-18T20:36:30.114Z,29.90
2018-12-18T20:38:57.631Z,29.73
2018-12-18T20:41:25.183Z,31.33
2018-12-18T20:43:52.716Z,37.70
2018-12-18T20:46:20.265Z,30.17
2018-12-18T20:48:47.780Z,35.30
2018-12-18T20:51:15.337Z,33.97
2018-12-18T20:53:42.858Z,31.87
2018-12-18T20:56:10.381Z,34.47
2018-12-18T20:58:37.893Z,41.27
2018-12-18T21:01:05.455Z,36.97
2018-12-18T21:03:32.970Z,41.83
2018-12-18T21:06:00.503Z,44.80
2018-12-18T21:08:28.053Z,36.33
2018-12-18T21:10:55.607Z,43.00
2018-12-18T21:13:27.846Z,41.80
2018-12-18T21:15:55.549Z,38.40
2018-12-18T21:18:23.115Z,36.10
2018-12-18T21:20:50.631Z,37.30
2018-12-18T21:23:18.150Z,36.30
2018-12-18T21:25:45.685Z,43.37
2018-12-18T21:28:13.193Z,34.83
2018-12-18T21:30:40.701Z,40.63
2018-12-18T21:33:08.256Z,37.70
2018-12-18T21:35:35.804Z,41.03
2018-12-18T21:38:03.330Z,39.67
2018-12-18T21:40:30.870Z,39.57
2018-12-18T21:42:58.429Z,39.10
2018-12-18T21:45:25.937Z,31.27
2018-12-18T21:47:53.454Z,31.90
2018-12-18T21:50:20.982Z,39.27
2018-12-18T21:52:48.829Z,36.00
2018-12-18T21:55:16.359Z,38.47
2018-12-18T21:57:43.891Z,38.07
2018-12-18T22:00:12.809Z,42.98
2018-12-18T22:02:40.449Z,32.57
2018-12-18T22:05:07.965Z,38.10
2018-12-18T22:07:35.489Z,34.00
2018-12-18T22:10:03.981Z,34.77
2018-12-18T22:12:31.505Z,30.23
2018-12-18T22:14:59.019Z,32.70
2018-12-18T22:17:26.573Z,33.17
2018-12-18T22:19:54.085Z,31.43
2018-12-18T22:22:21.635Z,33.17
2018-12-18T22:24:49.157Z,38.53
2018-12-18T22:27:16.710Z,37.30
2018-12-18T22:29:44.244Z,40.20
2018-12-18T22:32:11.801Z,37.37
2018-12-18T22:34:39.310Z,36.57
2018-12-18T22:37:06.857Z,31.03
2018-12-18T22:39:34.401Z,31.53
2018-12-18T22:42:01.934Z,36.60
2018-12-18T22:44:29.451Z,35.23
2018-12-18T22:46:57.001Z,31.10
2018-12-18T22:49:24.543Z,34.10
2018-12-18T22:51:52.066Z,28.10
2018-12-18T22:54:19.579Z,30.03
2018-12-18T22:56:47.115Z,36.45
2018-12-18T22:59:14.655Z,28.33
2018-12-18T23:01:45.294Z,32.90
2018-12-18T23:04:13.681Z,29.97
2018-12-18T23:06:41.210Z,27.73
2018-12-18T23:09:10.703Z,27.17
2018-12-18T23:11:38.230Z,25.45
2018-12-18T23:14:05.741Z,21.00
2018-12-18T23:16:33.262Z,21.27
2018-12-18T23:19:00.778Z,20.33
2018-12-18T23:21:28.324Z,22.70
2018-12-18T23:23:55.866Z,17.07
2018-12-18T23:26:23.394Z,21.93
2018-12-18T23:28:50.928Z,22.17
2018-12-18T23:31:18.476Z,22.30
2018-12-18T23:33:46.029Z,19.93
2018-12-18T23:36:13.570Z,21.27
2018-12-18T23:38:41.088Z,21.33
2018-12-18T23:41:08.645Z,23.33
2018-12-18T23:43:36.207Z,18.00
2018-12-18T23:46:03.722Z,21.47
2018-12-18T23:48:31.309Z,24.90
2018-12-18T23:50:58.838Z,21.83
2018-12-18T23:53:26.350Z,22.37
2018-12-18T23:55:53.885Z,20.47
2018-12-18T23:58:21.420Z,21.73
